Airfield :
LOGIN :

Register | Disclaimer

   EN    FR    IT 

 










Legend :    VFR   Marginal VFR   IFR   Intensive IFR   Very Intensive IFR
Visi :
Ceiling :
>= 8 km
>= 3000ft
5 to 8 km
1000 to 3000 ft
1500m to 5 km
500 to 1000 ft
800 to 1500m
200 to 500 ft
< 800m
< 200 ft
Symbols :   Thunderstorms  Fog  Heavy snow  Heavy precipitations  Wind > 20 kt
SIGMETs :     Misc.  Thunderstorms  Icing  Turbulence  Mountain Waves  Volcanic Ashes







- Airport Elevation : 25 ft
- IATA code : QCY


EGXC - RAF Coningsby

CURRENT METAR :
  • 210350Z 31006KT 9000 HZ FEW140 OVC160 M01/M02 Q1013 BLU

EXPIRED METARs :
  • 210250Z 28007KT CAVOK M00/M02 Q1013 BLU
  • 210150Z 27007KT 9000 HZ FEW160 BKN200 M01/M02 Q1012 BLU

TAF TAF EGXC
Valid from the 21 at 03:00 until the 21 at 21:00 UTC


210150Z 2103/2121 29005KT 9000 HZ NSC
PROB40
TEMPO 2103/2110 6000 BR
BECMG 2110/2112 6000 -RA BKN007 OVC016
TEMPO 2112/2121 3000 RA BKN004
PROB30
TEMPO 2113/2116 1500 SN BKN002
PROB40
TEMPO 2119/2121 2000 -RADZ SCT002 OVC003
No reported NOTAMs for that airfield.
2 SIGMETs reported for the London FIR (EGTT) :
 
Severe icing
EGTT SIGMET 02 VALID 210435/210715 EGRR
EGTT LONDON FIR SEV ICE FCST WI N5500 W00530 - N5500 W00313 - N5321 W00005 - N5120 W00240 - N5231 W00530 - N5500 W00530 FL020/140 MOV ESE 15KT NC=
Severe icing
EGTT SIGMET 01 VALID 210040/210435 EGRR
EGTT LONDON FIR SEV ICE FCST NW OF LINE N5500 W00334 - N5257 W00530 FL030/140 MOV SE 15KT NC=



MET'MAP, your aeronautical weather chart ! - Copyright ORBIFLY December 2007 - Disclaimer

ORBIFLY MET'MAP TEAM :

Programming & Development : Alexandra Zaïnal
Concept & Development : Baudouin d'Aumeries
Co-Development & Prog : Marc-Olivier Méhu
Technical & hardware support : Manuel Goepfert

Contact : metmap@orbifly.com




SOURCES & CREDITS :

   NOAA